A- A+ FrançaisEnglishEspañol中国

Services sur Internet Soldes sur Internet Des idées de cadeaux Météo Météo aéro

La météo à : Autours de vous Tarbes-Lourdes-PyrénéesCreil-Senlis Persan-Beaumont Le-Plessis-Belleville

La météo aéronautique pour les pilotes, la préparation du vol avec les METAR (METeorological Aerodrome Report, message d'observation des conditions météorologiques pour l'aviation) et Les TAF (Terminal Aerodrome Forecast : message de prévision à court terme des conditions météorologiques pour l'aviation). Et les autres ressources comme les VAC (Visual Approch Chart) et les NOTAM (Notice To Airman) pour préprer les vols.

Aéroport Tiaret (Algérie) / OACI DAOB/ IATA TID

L'altitude de l'aéroport Tiaret est de 989 m = 3245 ft. Il est situé à proximité de Tiaret (Algérie). La météo générale à 5 jours est disponible pour Tiaret situé à 13.7 km.

METAR de l'aéroport Tiaret - DAOB

DAOB 071100Z 06006KT 9999 FEW026 SCT093 11/09 Q1022

Décodage du METAR de l'aéroport Tiaret (DZ)

METAR émis par DAOB le samedi 7 décembre 2019 à 11:00 heure TU, il y a 12 minutes.

La visibilité est de supérieure à 10 km = supérieure à 6.2 sm.

La température est de 11°C = 52 °F et le point rosée est de 9°C = 48 °F . Ce qui correspond à 87% d'humidité relative.

Le QNH est de 1022 hPa = 30.18 inHg

Vent de 6 kt = 11 km/h, orienté à 60°.

Nuages : Quelques nuages à 2600 ft = 790 mètres. Nuages épars à 9300 ft = 2830 mètres.

TAF de l'aéroport Tiaret - DAOB

DAOB 070500Z 0706/0806 08008KT CAVOK BECMG 0710/0713 28010KT PROB40 TEMPO 0710/0718 FEW026CB BECMG 0717/0720 34010KT

DAOB 070500Z 0706/0806 08008KT visibilité supérieure à 10km, aucun nuage à une hauteur inférieure à 5000 ft ou sous l'altitude minimale de secteur et aucun cumulonimbus ou cumulus bourgeonnant, quelle que soit leur altitude devenant 0710/0713 28010KT probabilité de 40% d'avoir temporairement 0710/0718 quelques nuages à 026CB devenant 0717/0720 34010KT

Aéroport à proximité de Tiaret

Météo générale à 5 jours à Tiaret (13.7 km)Aéroport Relizane (88 km)Aéroport Ech-Cheliff (98 km)Aéroport Ghriss (120 km)Aéroport Ain Oussera (130 km)Aéroport Blida (178 km)Aéroport Oran Tafaroui (182 km)

Vue aérienne de l'aéroport Tiaret

NOTAM de l'aéroport Tiaret

Les NOTAM sont fournis sans aucune garantie de leur actualité. Le pilote est le seul responsable de la vérification de sa validité avant de l'utiliser opérationnellement pour préparer un vol ou l'utiliser lors de sa navigation.

Pas de NOTAM

Sources des données